createdAt,value
2022-11-21T00:02:13.295Z,31.24
2022-11-21T00:07:20.599Z,31.24
2022-11-21T00:12:27.843Z,31.05
2022-11-21T00:17:35.026Z,30.89
2022-11-21T00:22:42.283Z,30.96
2022-11-21T00:27:49.602Z,31.12
2022-11-21T00:32:56.786Z,31.01
2022-11-21T00:38:04.037Z,30.15
2022-11-21T00:43:11.282Z,30.76
2022-11-21T00:48:18.515Z,30.66
2022-11-21T00:53:25.752Z,30.61
2022-11-21T00:58:32.955Z,30.81
2022-11-21T01:03:40.150Z,30.71
2022-11-21T01:08:47.311Z,30.80
2022-11-21T01:13:54.522Z,30.97
2022-11-21T01:19:01.729Z,30.66
2022-11-21T01:24:08.890Z,29.92
2022-11-21T01:29:16.115Z,30.46
2022-11-21T01:34:23.296Z,30.08
2022-11-21T01:39:30.522Z,30.01
2022-11-21T01:44:37.724Z,30.13
2022-11-21T01:49:45.031Z,30.22
2022-11-21T01:54:52.247Z,29.98
2022-11-21T01:59:59.459Z,30.15
2022-11-21T02:05:06.623Z,30.56
2022-11-21T02:10:13.833Z,31.05
2022-11-21T02:15:21.126Z,31.05
2022-11-21T02:20:28.290Z,31.22
2022-11-21T02:25:35.500Z,31.09
2022-11-21T02:30:42.766Z,31.32
2022-11-21T02:35:49.959Z,31.11
2022-11-21T02:40:57.154Z,31.39
2022-11-21T02:46:04.401Z,31.67
2022-11-21T02:51:11.608Z,31.44
2022-11-21T02:56:18.863Z,31.65
2022-11-21T03:01:26.192Z,31.36
2022-11-21T03:06:33.341Z,31.32
2022-11-21T03:11:40.581Z,31.53
2022-11-21T03:16:47.811Z,31.65
2022-11-21T03:21:54.993Z,31.92
2022-11-21T03:27:02.197Z,31.83
2022-11-21T03:32:09.395Z,31.90
2022-11-21T03:37:16.515Z,31.97
2022-11-21T03:42:23.708Z,32.08
2022-11-21T03:47:30.940Z,32.11
2022-11-21T03:52:38.140Z,32.19
2022-11-21T03:57:45.328Z,32.25
2022-11-21T04:02:53.891Z,31.75
2022-11-21T04:08:01.218Z,31.50
2022-11-21T04:13:08.621Z,31.39
2022-11-21T04:18:15.894Z,31.80
2022-11-21T04:23:23.123Z,31.91
2022-11-21T04:28:30.402Z,31.80
2022-11-21T04:33:37.656Z,31.78
2022-11-21T04:38:44.929Z,31.77
2022-11-21T04:43:52.170Z,31.83
2022-11-21T04:48:59.429Z,32.00
2022-11-21T04:54:06.606Z,32.31
2022-11-21T04:59:13.836Z,32.28
2022-11-21T05:04:21.147Z,32.44
2022-11-21T05:09:28.358Z,32.43
2022-11-21T05:14:35.614Z,32.34
2022-11-21T05:19:43.035Z,32.23
2022-11-21T05:24:50.267Z,32.31
2022-11-21T05:29:57.468Z,32.31
2022-11-21T05:35:04.707Z,32.36
2022-11-21T05:40:11.894Z,32.28
2022-11-21T05:45:19.083Z,32.34
2022-11-21T05:50:26.356Z,31.82
2022-11-21T05:55:33.622Z,31.69
2022-11-21T06:00:40.884Z,32.09
2022-11-21T06:05:48.156Z,32.25
2022-11-21T06:10:55.341Z,32.08
2022-11-21T06:16:02.544Z,32.25
2022-11-21T06:21:09.736Z,32.30
2022-11-21T06:26:17.032Z,31.48
2022-11-21T06:31:24.261Z,32.06
2022-11-21T06:36:31.455Z,32.22
2022-11-21T06:41:38.634Z,32.15
2022-11-21T06:46:50.663Z,31.98
2022-11-21T06:51:53.083Z,32.17
2022-11-21T06:57:00.226Z,32.38
2022-11-21T07:02:07.463Z,32.37
2022-11-21T07:07:14.793Z,32.22
2022-11-21T07:12:21.939Z,32.37
2022-11-21T07:17:29.077Z,32.13
2022-11-21T07:22:36.306Z,32.06
2022-11-21T07:27:43.448Z,32.19
2022-11-21T07:32:50.667Z,32.08
2022-11-21T07:37:57.927Z,32.42
2022-11-21T07:43:10.520Z,32.50
2022-11-21T07:48:12.341Z,32.33
2022-11-21T07:53:19.607Z,31.89
2022-11-21T07:58:26.816Z,32.49
2022-11-21T08:03:34.057Z,32.67
2022-11-21T08:08:41.263Z,32.41
2022-11-21T08:13:48.435Z,32.30
2022-11-21T08:18:55.634Z,32.13
2022-11-21T08:24:02.808Z,32.05
2022-11-21T08:29:09.936Z,31.75
2022-11-21T08:34:17.185Z,31.75
2022-11-21T08:39:24.467Z,31.44
2022-11-21T08:44:31.875Z,30.82
2022-11-21T08:49:38.817Z,30.76
2022-11-21T08:54:46.163Z,30.67
2022-11-21T08:59:53.379Z,30.40
2022-11-21T09:05:00.569Z,30.99
2022-11-21T09:10:07.846Z,31.37
2022-11-21T09:15:15.240Z,31.64
2022-11-21T09:20:22.688Z,31.69
2022-11-21T09:25:29.770Z,31.58
2022-11-21T09:30:37.148Z,31.75
2022-11-21T09:35:44.324Z,31.67
2022-11-21T09:40:51.699Z,31.84
2022-11-21T09:45:59.490Z,31.84
2022-11-21T09:51:06.812Z,31.86
2022-11-21T09:56:14.162Z,31.82
2022-11-21T10:01:21.428Z,31.80
2022-11-21T10:06:28.550Z,31.86
2022-11-21T10:11:35.766Z,31.95
2022-11-21T10:16:42.991Z,31.96
2022-11-21T10:21:50.279Z,31.98
2022-11-21T10:26:57.612Z,32.00
2022-11-21T10:32:04.817Z,31.99
2022-11-21T10:37:12.083Z,32.07
2022-11-21T10:42:24.360Z,32.09
2022-11-21T10:47:26.400Z,32.07
2022-11-21T10:52:33.733Z,32.06
2022-11-21T10:57:40.976Z,32.09
2022-11-21T11:02:48.129Z,32.10
2022-11-21T11:07:55.298Z,32.15
2022-11-21T11:13:08.713Z,32.24
2022-11-21T11:18:09.952Z,32.38
2022-11-21T11:23:16.918Z,32.46
2022-11-21T11:28:24.183Z,32.49
2022-11-21T11:33:31.308Z,32.52
2022-11-21T11:38:38.559Z,32.57
2022-11-21T11:43:47.150Z,32.42
2022-11-21T11:54:01.323Z,32.45
2022-11-21T11:59:07.464Z,32.47
2022-11-21T12:04:14.605Z,32.47
2022-11-21T12:09:21.861Z,32.47
2022-11-21T12:14:29.058Z,32.41
2022-11-21T12:19:36.250Z,32.46
2022-11-21T12:24:43.660Z,32.48
2022-11-21T12:29:50.878Z,32.43
2022-11-21T12:34:58.046Z,32.45
2022-11-21T12:40:05.229Z,32.44
2022-11-21T12:45:12.438Z,32.45
2022-11-21T12:50:19.604Z,32.51
2022-11-21T12:55:30.701Z,32.45
2022-11-21T13:00:34.310Z,32.48
2022-11-21T13:05:41.505Z,32.51
2022-11-21T13:10:48.738Z,32.58
2022-11-21T13:15:55.947Z,32.52
2022-11-21T13:21:03.182Z,32.53
2022-11-21T13:26:10.378Z,32.59
2022-11-21T13:31:17.619Z,32.59
2022-11-21T13:36:24.865Z,32.55
2022-11-21T13:41:32.078Z,32.53
2022-11-21T13:46:39.488Z,32.46
2022-11-21T13:51:46.781Z,32.52
2022-11-21T13:56:54.068Z,32.55
2022-11-21T14:02:01.322Z,32.59
2022-11-21T14:07:08.593Z,32.58
2022-11-21T14:12:15.630Z,32.62
2022-11-21T14:17:22.780Z,32.62
2022-11-21T14:22:34.783Z,32.71
2022-11-21T14:27:40.906Z,32.71
2022-11-21T14:32:48.433Z,32.71
2022-11-21T14:37:51.546Z,32.75
2022-11-21T14:42:58.715Z,32.72
2022-11-21T14:48:05.888Z,32.77
2022-11-21T14:53:13.131Z,32.83
2022-11-21T14:58:20.466Z,32.85
2022-11-21T15:03:27.737Z,32.91
2022-11-21T15:14:12.230Z,33.09
2022-11-21T15:18:49.427Z,33.07
2022-11-21T15:23:56.657Z,33.11
2022-11-21T15:29:03.933Z,33.12
2022-11-21T15:39:18.408Z,33.07
2022-11-21T15:44:25.579Z,33.06
2022-11-21T15:49:33.596Z,33.12
2022-11-21T15:54:39.967Z,33.08
2022-11-21T15:59:47.173Z,33.15
2022-11-21T16:04:54.413Z,33.12
2022-11-21T16:10:01.593Z,33.11
2022-11-21T16:15:08.798Z,33.13
2022-11-21T16:20:16.056Z,33.15
2022-11-21T16:25:23.287Z,33.15
2022-11-21T16:30:30.505Z,33.17
2022-11-21T16:35:37.896Z,33.19
2022-11-21T16:40:44.966Z,33.26
2022-11-21T16:45:52.416Z,33.29
2022-11-21T16:50:59.794Z,33.29
2022-11-21T16:56:06.990Z,33.32
2022-11-21T17:01:14.535Z,33.34
2022-11-21T17:06:22.563Z,33.25
2022-11-21T17:11:30.041Z,33.29
2022-11-21T17:16:37.793Z,33.23
2022-11-21T17:21:45.494Z,33.31
2022-11-21T17:26:53.082Z,33.23
2022-11-21T17:32:00.694Z,33.27
2022-11-21T17:37:08.337Z,33.55
2022-11-21T17:42:15.618Z,33.46
2022-11-21T17:47:23.072Z,33.47
2022-11-21T17:52:30.698Z,33.17
2022-11-21T17:57:38.148Z,32.96
2022-11-21T18:02:45.537Z,32.77
2022-11-21T18:07:52.943Z,32.64
2022-11-21T18:13:00.496Z,32.59
2022-11-21T18:18:08.095Z,32.46
2022-11-21T18:23:15.746Z,32.31
2022-11-21T18:28:23.064Z,32.24
2022-11-21T18:33:30.479Z,32.25
2022-11-21T18:39:02.156Z,32.07
2022-11-21T18:43:47.025Z,31.97
2022-11-21T18:49:04.872Z,32.00
2022-11-21T18:54:01.324Z,31.83
2022-11-21T18:59:08.913Z,31.75
2022-11-21T19:04:16.525Z,31.69
2022-11-21T19:09:29.405Z,31.58
2022-11-21T19:14:31.982Z,31.57
2022-11-21T19:19:39.571Z,31.52
2022-11-21T19:24:47.170Z,31.44
2022-11-21T19:29:54.805Z,31.39
2022-11-21T19:35:02.516Z,31.41
2022-11-21T19:40:10.160Z,31.93
2022-11-21T19:45:17.744Z,31.84
2022-11-21T19:50:25.363Z,31.74
2022-11-21T19:55:33.103Z,31.97
2022-11-21T20:00:40.617Z,32.20
2022-11-21T20:05:48.202Z,32.14
2022-11-21T20:10:55.849Z,32.12
2022-11-21T20:16:03.536Z,32.04
2022-11-21T20:21:10.879Z,32.30
2022-11-21T20:26:18.381Z,31.96
2022-11-21T20:31:25.979Z,31.70
2022-11-21T20:36:33.693Z,32.09
2022-11-21T20:41:41.328Z,31.68
2022-11-21T20:46:48.920Z,31.81
2022-11-21T20:57:03.773Z,31.75
2022-11-21T21:02:11.507Z,31.67
2022-11-21T21:07:18.807Z,31.81
2022-11-21T21:12:26.027Z,31.73
2022-11-21T21:17:33.177Z,31.89
2022-11-21T21:22:40.361Z,31.91
2022-11-21T21:27:47.620Z,31.85
2022-11-21T21:32:54.773Z,31.71
2022-11-21T21:38:07.595Z,31.79
2022-11-21T21:43:09.147Z,31.83
2022-11-21T21:48:16.305Z,31.65
2022-11-21T21:53:23.506Z,31.53
2022-11-21T21:58:30.663Z,31.74
2022-11-21T22:03:37.801Z,31.52
2022-11-21T22:08:45.018Z,31.64
2022-11-21T22:13:52.319Z,31.70
2022-11-21T22:18:59.530Z,31.77
2022-11-21T22:24:24.779Z,31.79
2022-11-21T22:29:13.965Z,31.53
2022-11-21T22:34:21.088Z,31.34
2022-11-21T22:39:28.357Z,31.54
2022-11-21T22:44:35.585Z,31.16
2022-11-21T22:49:42.792Z,31.13
2022-11-21T22:54:49.954Z,31.15
2022-11-21T22:59:57.187Z,31.00
2022-11-21T23:05:04.414Z,30.84
2022-11-21T23:10:11.716Z,30.76
2022-11-21T23:15:18.947Z,30.48
2022-11-21T23:20:26.097Z,30.60
2022-11-21T23:25:33.309Z,30.77
2022-11-21T23:30:40.517Z,30.63
2022-11-21T23:35:47.703Z,30.95
2022-11-21T23:40:54.907Z,30.99
2022-11-21T23:46:02.082Z,30.99
2022-11-21T23:51:09.211Z,30.90
2022-11-21T23:56:16.368Z,30.61
